sensor_id;sensor_type;location;lat;lon;timestamp;P1;durP1;ratioP1;P2;durP2;ratioP2
30404;SDS011;62931;53.128;8.224;2022-10-16T15:52:33;0.95;;;0.52;;
30404;SDS011;62931;53.128;8.224;2022-10-16T15:54:59;2.60;;;0.47;;
30404;SDS011;62931;53.128;8.224;2022-10-16T15:57:27;0.55;;;0.55;;
30404;SDS011;62931;53.128;8.224;2022-10-16T15:59:54;7.07;;;1.08;;
30404;SDS011;62931;53.128;8.224;2022-10-16T16:02:19;0.50;;;0.50;;
30404;SDS011;62931;53.128;8.224;2022-10-16T16:04:45;6.72;;;2.50;;
30404;SDS011;62931;53.128;8.224;2022-10-16T16:07:11;8.88;;;4.70;;
30404;SDS011;62931;53.128;8.224;2022-10-16T16:09:36;14.40;;;4.30;;
30404;SDS011;62931;53.128;8.224;2022-10-16T16:12:02;8.57;;;3.75;;
30404;SDS011;62931;53.128;8.224;2022-10-16T16:14:28;10.75;;;3.83;;
30404;SDS011;62931;53.128;8.224;2022-10-16T16:16:54;4.90;;;2.90;;
30404;SDS011;62931;53.128;8.224;2022-10-16T16:19:20;7.00;;;3.63;;
30404;SDS011;62931;53.128;8.224;2022-10-16T16:21:46;5.30;;;2.42;;
30404;SDS011;62931;53.128;8.224;2022-10-16T16:24:12;3.38;;;2.38;;
30404;SDS011;62931;53.128;8.224;2022-10-16T16:26:38;3.58;;;2.33;;
30404;SDS011;62931;53.128;8.224;2022-10-16T16:29:08;3.40;;;1.73;;
30404;SDS011;62931;53.128;8.224;2022-10-16T16:31:38;2.30;;;1.33;;
30404;SDS011;62931;53.128;8.224;2022-10-16T16:34:04;4.78;;;1.35;;
30404;SDS011;62931;53.128;8.224;2022-10-16T16:36:30;6.97;;;3.35;;
30404;SDS011;62931;53.128;8.224;2022-10-16T16:38:56;3.63;;;1.65;;
30404;SDS011;62931;53.128;8.224;2022-10-16T16:41:23;1.63;;;1.25;;
30404;SDS011;62931;53.128;8.224;2022-10-16T16:43:51;2.22;;;1.00;;
30404;SDS011;62931;53.128;8.224;2022-10-16T16:46:17;6.80;;;1.65;;
30404;SDS011;62931;53.128;8.224;2022-10-16T16:48:43;1.17;;;0.65;;
30404;SDS011;62931;53.128;8.224;2022-10-16T16:51:13;2.95;;;1.38;;
30404;SDS011;62931;53.128;8.224;2022-10-16T16:53:41;3.17;;;1.10;;
30404;SDS011;62931;53.128;8.224;2022-10-16T16:56:08;3.88;;;1.60;;
30404;SDS011;62931;53.128;8.224;2022-10-16T16:58:34;4.22;;;1.45;;
30404;SDS011;62931;53.128;8.224;2022-10-16T17:01:00;6.05;;;1.05;;
30404;SDS011;62931;53.128;8.224;2022-10-16T17:03:31;2.30;;;1.05;;
30404;SDS011;62931;53.128;8.224;2022-10-16T17:06:07;2.70;;;1.20;;
30404;SDS011;62931;53.128;8.224;2022-10-16T17:08:34;1.98;;;0.93;;
30404;SDS011;62931;53.128;8.224;2022-10-16T17:11:00;2.25;;;1.30;;
30404;SDS011;62931;53.128;8.224;2022-10-16T17:13:27;1.27;;;0.90;;
30404;SDS011;62931;53.128;8.224;2022-10-16T17:15:54;0.95;;;0.68;;
30404;SDS011;62931;53.128;8.224;2022-10-16T17:18:21;1.13;;;0.98;;
30404;SDS011;62931;53.128;8.224;2022-10-16T17:20:47;4.05;;;1.08;;
30404;SDS011;62931;53.128;8.224;2022-10-16T17:23:14;1.35;;;0.88;;
30404;SDS011;62931;53.128;8.224;2022-10-16T17:25:41;2.45;;;1.27;;
30404;SDS011;62931;53.128;8.224;2022-10-16T17:28:07;4.13;;;1.02;;
30404;SDS011;62931;53.128;8.224;2022-10-16T17:30:36;4.57;;;0.82;;
30404;SDS011;62931;53.128;8.224;2022-10-16T17:33:02;5.00;;;1.25;;
30404;SDS011;62931;53.128;8.224;2022-10-16T17:35:29;3.78;;;1.38;;
30404;SDS011;62931;53.128;8.224;2022-10-16T17:38:00;3.00;;;1.20;;
30404;SDS011;62931;53.128;8.224;2022-10-16T17:40:26;4.47;;;1.80;;
30404;SDS011;62931;53.128;8.224;2022-10-16T17:42:51;1.08;;;0.93;;
30404;SDS011;62931;53.128;8.224;2022-10-16T17:45:17;4.05;;;1.67;;
30404;SDS011;62931;53.128;8.224;2022-10-16T17:47:42;9.93;;;3.28;;
30404;SDS011;62931;53.128;8.224;2022-10-16T17:50:08;12.38;;;4.57;;
30404;SDS011;62931;53.128;8.224;2022-10-16T17:52:34;9.40;;;3.88;;
30404;SDS011;62931;53.128;8.224;2022-10-16T17:54:59;8.75;;;3.97;;
30404;SDS011;62931;53.128;8.224;2022-10-16T17:57:25;8.45;;;3.90;;
30404;SDS011;62931;53.128;8.224;2022-10-16T17:59:52;9.15;;;3.88;;
30404;SDS011;62931;53.128;8.224;2022-10-16T18:02:18;5.43;;;2.45;;
30404;SDS011;62931;53.128;8.224;2022-10-16T18:04:44;6.55;;;2.85;;
30404;SDS011;62931;53.128;8.224;2022-10-16T18:07:10;7.03;;;4.28;;
30404;SDS011;62931;53.128;8.224;2022-10-16T18:09:35;8.35;;;2.53;;
30404;SDS011;62931;53.128;8.224;2022-10-16T18:12:01;8.20;;;2.50;;
30404;SDS011;62931;53.128;8.224;2022-10-16T18:14:27;6.53;;;3.75;;
30404;SDS011;62931;53.128;8.224;2022-10-16T18:16:55;7.47;;;2.67;;
30404;SDS011;62931;53.128;8.224;2022-10-16T18:19:22;21.85;;;3.85;;
30404;SDS011;62931;53.128;8.224;2022-10-16T18:21:49;17.95;;;4.18;;
30404;SDS011;62931;53.128;8.224;2022-10-16T18:24:15;7.00;;;3.53;;
30404;SDS011;62931;53.128;8.224;2022-10-16T18:26:41;4.13;;;2.33;;
30404;SDS011;62931;53.128;8.224;2022-10-16T18:29:07;9.70;;;2.97;;
30404;SDS011;62931;53.128;8.224;2022-10-16T18:31:37;12.90;;;4.10;;
30404;SDS011;62931;53.128;8.224;2022-10-16T18:34:03;11.02;;;3.30;;
30404;SDS011;62931;53.128;8.224;2022-10-16T18:36:30;5.60;;;2.88;;
30404;SDS011;62931;53.128;8.224;2022-10-16T18:38:58;4.82;;;2.78;;
30404;SDS011;62931;53.128;8.224;2022-10-16T18:41:25;9.75;;;3.83;;
30404;SDS011;62931;53.128;8.224;2022-10-16T18:43:51;10.32;;;3.70;;
30404;SDS011;62931;53.128;8.224;2022-10-16T18:46:18;9.52;;;3.50;;
30404;SDS011;62931;53.128;8.224;2022-10-16T18:48:46;11.10;;;3.13;;
30404;SDS011;62931;53.128;8.224;2022-10-16T18:53:38;6.80;;;3.00;;
30404;SDS011;62931;53.128;8.224;2022-10-16T18:56:06;8.68;;;3.25;;
30404;SDS011;62931;53.128;8.224;2022-10-16T18:58:35;12.95;;;4.65;;
30404;SDS011;62931;53.128;8.224;2022-10-16T19:01:06;8.23;;;3.33;;
30404;SDS011;62931;53.128;8.224;2022-10-16T19:03:33;10.98;;;4.20;;
30404;SDS011;62931;53.128;8.224;2022-10-16T19:06:00;11.95;;;4.35;;
30404;SDS011;62931;53.128;8.224;2022-10-16T19:08:28;8.73;;;4.28;;
30404;SDS011;62931;53.128;8.224;2022-10-16T19:10:56;11.10;;;4.55;;
30404;SDS011;62931;53.128;8.224;2022-10-16T19:13:29;7.85;;;3.28;;
30404;SDS011;62931;53.128;8.224;2022-10-16T19:15:55;16.38;;;4.38;;
30404;SDS011;62931;53.128;8.224;2022-10-16T19:18:21;8.50;;;4.00;;
30404;SDS011;62931;53.128;8.224;2022-10-16T19:20:46;13.32;;;5.22;;
30404;SDS011;62931;53.128;8.224;2022-10-16T19:23:12;14.27;;;4.85;;
30404;SDS011;62931;53.128;8.224;2022-10-16T19:25:37;12.45;;;4.78;;
30404;SDS011;62931;53.128;8.224;2022-10-16T19:28:04;6.82;;;3.58;;
30404;SDS011;62931;53.128;8.224;2022-10-16T19:30:35;9.63;;;4.13;;
30404;SDS011;62931;53.128;8.224;2022-10-16T19:33:05;9.00;;;3.40;;
30404;SDS011;62931;53.128;8.224;2022-10-16T19:35:31;11.65;;;5.10;;
30404;SDS011;62931;53.128;8.224;2022-10-16T19:37:58;12.25;;;5.20;;
30404;SDS011;62931;53.128;8.224;2022-10-16T19:40:24;11.52;;;4.22;;
30404;SDS011;62931;53.128;8.224;2022-10-16T19:42:50;7.80;;;3.38;;
30404;SDS011;62931;53.128;8.224;2022-10-16T19:45:16;12.63;;;5.10;;
30404;SDS011;62931;53.128;8.224;2022-10-16T19:47:41;14.30;;;4.20;;
30404;SDS011;62931;53.128;8.224;2022-10-16T19:50:09;14.57;;;4.63;;
30404;SDS011;62931;53.128;8.224;2022-10-16T19:52:36;9.00;;;5.35;;
30404;SDS011;62931;53.128;8.224;2022-10-16T19:55:03;12.20;;;5.68;;
30404;SDS011;62931;53.128;8.224;2022-10-16T19:57:31;8.65;;;3.42;;
30404;SDS011;62931;53.128;8.224;2022-10-16T19:59:58;13.75;;;3.95;;
30404;SDS011;62931;53.128;8.224;2022-10-16T20:02:24;19.58;;;4.13;;
30404;SDS011;62931;53.128;8.224;2022-10-16T20:04:50;13.10;;;5.07;;
30404;SDS011;62931;53.128;8.224;2022-10-16T20:07:16;9.13;;;3.60;;
30404;SDS011;62931;53.128;8.224;2022-10-16T20:09:41;7.43;;;3.33;;
30404;SDS011;62931;53.128;8.224;2022-10-16T20:12:07;4.78;;;2.58;;
30404;SDS011;62931;53.128;8.224;2022-10-16T20:14:33;6.63;;;2.55;;
30404;SDS011;62931;53.128;8.224;2022-10-16T20:16:59;4.75;;;2.55;;
30404;SDS011;62931;53.128;8.224;2022-10-16T20:19:26;7.00;;;3.15;;
30404;SDS011;62931;53.128;8.224;2022-10-16T20:21:51;4.50;;;2.38;;
30404;SDS011;62931;53.128;8.224;2022-10-16T20:24:17;5.20;;;3.08;;
30404;SDS011;62931;53.128;8.224;2022-10-16T20:26:43;5.80;;;2.83;;
30404;SDS011;62931;53.128;8.224;2022-10-16T20:29:09;9.85;;;3.33;;
30404;SDS011;62931;53.128;8.224;2022-10-16T20:31:35;11.65;;;2.33;;
30404;SDS011;62931;53.128;8.224;2022-10-16T20:34:02;7.68;;;3.30;;
30404;SDS011;62931;53.128;8.224;2022-10-16T20:36:31;7.70;;;2.70;;
30404;SDS011;62931;53.128;8.224;2022-10-16T20:38:57;5.22;;;2.83;;
30404;SDS011;62931;53.128;8.224;2022-10-16T20:41:23;9.05;;;3.15;;
30404;SDS011;62931;53.128;8.224;2022-10-16T20:43:50;4.45;;;1.92;;
30404;SDS011;62931;53.128;8.224;2022-10-16T20:46:17;5.07;;;3.05;;
30404;SDS011;62931;53.128;8.224;2022-10-16T20:48:44;6.40;;;3.40;;
30404;SDS011;62931;53.128;8.224;2022-10-16T20:53:59;8.65;;;2.90;;
30404;SDS011;62931;53.128;8.224;2022-10-16T20:56:28;5.82;;;2.33;;
30404;SDS011;62931;53.128;8.224;2022-10-16T20:58:55;7.47;;;4.85;;
30404;SDS011;62931;53.128;8.224;2022-10-16T21:01:22;5.45;;;2.65;;
30404;SDS011;62931;53.128;8.224;2022-10-16T21:03:50;7.55;;;3.10;;
30404;SDS011;62931;53.128;8.224;2022-10-16T21:06:21;9.40;;;3.70;;
30404;SDS011;62931;53.128;8.224;2022-10-16T21:08:47;5.18;;;2.58;;
30404;SDS011;62931;53.128;8.224;2022-10-16T21:11:14;4.10;;;2.10;;
30404;SDS011;62931;53.128;8.224;2022-10-16T21:13:45;6.93;;;2.50;;
30404;SDS011;62931;53.128;8.224;2022-10-16T21:16:11;2.90;;;1.90;;
30404;SDS011;62931;53.128;8.224;2022-10-16T21:18:38;4.45;;;2.30;;
30404;SDS011;62931;53.128;8.224;2022-10-16T21:21:04;3.65;;;2.03;;
30404;SDS011;62931;53.128;8.224;2022-10-16T21:23:31;4.03;;;2.42;;
30404;SDS011;62931;53.128;8.224;2022-10-16T21:25:57;8.25;;;2.85;;
30404;SDS011;62931;53.128;8.224;2022-10-16T21:28:25;9.30;;;2.20;;
30404;SDS011;62931;53.128;8.224;2022-10-16T21:30:52;5.32;;;2.38;;
30404;SDS011;62931;53.128;8.224;2022-10-16T21:33:17;6.82;;;1.65;;
30404;SDS011;62931;53.128;8.224;2022-10-16T21:35:43;5.80;;;2.38;;
30404;SDS011;62931;53.128;8.224;2022-10-16T21:38:08;5.70;;;2.10;;
30404;SDS011;62931;53.128;8.224;2022-10-16T21:40:34;4.30;;;1.80;;
30404;SDS011;62931;53.128;8.224;2022-10-16T21:42:59;2.85;;;1.40;;
30404;SDS011;62931;53.128;8.224;2022-10-16T21:45:25;4.95;;;1.98;;
30404;SDS011;62931;53.128;8.224;2022-10-16T21:47:51;4.68;;;2.17;;
30404;SDS011;62931;53.128;8.224;2022-10-16T21:50:16;3.97;;;1.73;;
30404;SDS011;62931;53.128;8.224;2022-10-16T21:52:42;4.53;;;2.15;;
30404;SDS011;62931;53.128;8.224;2022-10-16T21:55:08;1.45;;;1.02;;
30404;SDS011;62931;53.128;8.224;2022-10-16T21:57:33;5.10;;;1.67;;
30404;SDS011;62931;53.128;8.224;2022-10-16T22:00:00;5.05;;;2.10;;
30404;SDS011;62931;53.128;8.224;2022-10-16T22:02:26;5.22;;;2.47;;
30404;SDS011;62931;53.128;8.224;2022-10-16T22:04:51;2.22;;;1.42;;
30404;SDS011;62931;53.128;8.224;2022-10-16T22:07:17;2.83;;;1.73;;
30404;SDS011;62931;53.128;8.224;2022-10-16T22:09:42;2.55;;;1.60;;
30404;SDS011;62931;53.128;8.224;2022-10-16T22:12:08;4.78;;;4.03;;
30404;SDS011;62931;53.128;8.224;2022-10-16T22:14:34;2.22;;;1.30;;
30404;SDS011;62931;53.128;8.224;2022-10-16T22:17:00;2.08;;;1.33;;
30404;SDS011;62931;53.128;8.224;2022-10-16T22:19:25;1.77;;;1.08;;
30404;SDS011;62931;53.128;8.224;2022-10-16T22:21:52;2.92;;;1.85;;
30404;SDS011;62931;53.128;8.224;2022-10-16T22:24:21;13.52;;;2.00;;
30404;SDS011;62931;53.128;8.224;2022-10-16T22:26:47;2.80;;;1.45;;
30404;SDS011;62931;53.128;8.224;2022-10-16T22:29:14;10.50;;;2.95;;
30404;SDS011;62931;53.128;8.224;2022-10-16T22:31:40;1.98;;;1.38;;
30404;SDS011;62931;53.128;8.224;2022-10-16T22:34:07;3.40;;;1.83;;
30404;SDS011;62931;53.128;8.224;2022-10-16T22:36:36;2.88;;;1.83;;
30404;SDS011;62931;53.128;8.224;2022-10-16T22:39:02;3.75;;;2.20;;
30404;SDS011;62931;53.128;8.224;2022-10-16T22:41:28;2.28;;;1.50;;
30404;SDS011;62931;53.128;8.224;2022-10-16T22:43:54;3.30;;;1.73;;
30404;SDS011;62931;53.128;8.224;2022-10-16T22:46:27;3.08;;;1.15;;
30404;SDS011;62931;53.128;8.224;2022-10-16T22:48:54;3.33;;;1.73;;
30404;SDS011;62931;53.128;8.224;2022-10-16T22:51:21;4.30;;;1.50;;
30404;SDS011;62931;53.128;8.224;2022-10-16T22:53:47;7.50;;;1.85;;
30404;SDS011;62931;53.128;8.224;2022-10-16T22:56:14;2.33;;;1.42;;
30404;SDS011;62931;53.128;8.224;2022-10-16T22:58:41;3.53;;;1.92;;
